Time;durP1;ratioP1;P1;durP2;ratioP2;P2;SDS_P1;SDS_P2;PMS_P1;PMS_P2;Temp;Humidity;BMP_temperature;BMP_pressure;BME280_temperature;BME280_humidity;BME280_pressure;Samples;Min_cycle;Max_cycle;Signal;HPM_P1;HPM_P2
2021/12/11 00:01:51;;;;;;;;;27.67;24.33;;;;;3.73;92.45;98727.44;5035202;28;45523;-75
2021/12/11 00:04:33;;;;;;;;;22.00;21.00;;;;;3.75;92.24;98736.09;5032457;28;45447;-79
2021/12/11 00:07:03;;;;;;;;;24.67;23.67;;;;;3.75;91.78;98726.53;5036598;28;45368;-75
2021/12/11 00:09:33;;;;;;;;;25.67;20.33;;;;;3.75;92.24;98723.91;5034325;28;46216;-76
2021/12/11 00:12:07;;;;;;;;;32.00;30.33;;;;;3.75;92.44;98729.13;5036530;28;45455;-75
2021/12/11 00:14:36;;;;;;;;;32.00;28.33;;;;;3.73;92.27;98722.22;5034991;28;45521;-75
2021/12/11 00:17:03;;;;;;;;;35.67;29.67;;;;;3.69;92.38;98733.59;5036113;28;45607;-75
2021/12/11 00:19:33;;;;;;;;;43.00;37.33;;;;;3.66;92.45;98720.63;5035267;28;45587;-75
2021/12/11 00:22:11;;;;;;;;;44.00;38.33;;;;;3.65;92.84;98722.38;5035026;28;45464;-75
2021/12/11 00:24:38;;;;;;;;;43.33;35.33;;;;;3.65;92.44;98718.91;5034779;28;45555;-75
2021/12/11 00:27:21;;;;;;;;;37.33;34.67;;;;;3.63;92.50;98718.09;5038084;28;45460;-75
2021/12/11 00:29:47;;;;;;;;;41.33;36.00;;;;;3.60;92.09;98728.56;5025662;28;46160;-76
2021/12/11 00:32:23;;;;;;;;;58.33;41.33;;;;;3.53;92.03;98727.81;5034873;28;45719;-76
2021/12/11 00:34:51;;;;;;;;;44.67;36.67;;;;;3.46;92.59;98740.09;5025104;28;45393;-76
2021/12/11 00:37:20;;;;;;;;;35.33;24.33;;;;;3.43;92.42;98731.47;5035856;28;45519;-76
2021/12/11 00:39:53;;;;;;;;;33.33;29.67;;;;;3.38;92.62;98744.56;5043583;28;48033;-76
2021/12/11 00:42:21;;;;;;;;;30.33;28.33;;;;;3.36;92.47;98751.56;5030482;28;45388;-76
2021/12/11 00:44:50;;;;;;;;;32.00;23.67;;;;;3.36;92.61;98748.09;5032582;28;45377;-76
2021/12/11 00:47:27;;;;;;;;;16.00;13.67;;;;;3.37;91.95;98748.06;5034657;28;45255;-76
2021/12/11 00:50:07;;;;;;;;;10.33;8.00;;;;;3.38;92.02;98752.38;5031020;28;46292;-76
2021/12/11 00:52:44;;;;;;;;;6.67;5.00;;;;;3.40;91.93;98762.78;5051062;28;45486;-76
2021/12/11 00:55:28;;;;;;;;;9.33;3.00;;;;;3.42;91.30;98761.88;5031339;28;45351;-76
2021/12/11 00:58:12;;;;;;;;;3.00;3.00;;;;;3.42;91.02;98769.69;5024357;28;45421;-76
2021/12/11 01:00:43;;;;;;;;;4.33;4.33;;;;;3.47;89.68;98764.41;5035473;28;46223;-76
2021/12/11 01:03:10;;;;;;;;;1.33;1.33;;;;;3.50;88.26;98757.41;5041988;28;45364;-76
2021/12/11 01:05:42;;;;;;;;;4.67;4.67;;;;;3.57;88.45;98760.75;5033358;28;45444;-76
2021/12/11 01:08:15;;;;;;;;;10.67;7.67;;;;;3.59;88.91;98766.78;5032282;28;45623;-76
2021/12/11 01:10:41;;;;;;;;;2.00;2.00;;;;;3.57;87.79;98775.53;5034883;28;46237;-76
2021/12/11 01:13:06;;;;;;;;;2.67;2.67;;;;;3.57;87.11;98778.13;5031922;28;45412;-76
2021/12/11 01:15:39;;;;;;;;;2.00;1.67;;;;;3.59;86.80;98782.44;5034717;28;45368;-76
2021/12/11 01:21:06;;;;;;;;;7.33;5.67;;;;;3.66;87.09;98783.19;5029234;28;45483;-76
2021/12/11 01:26:10;;;;;;;;;3.67;2.00;;;;;3.66;86.10;98796.22;5032563;28;45377;-75
2021/12/11 01:28:36;;;;;;;;;2.33;2.00;;;;;3.68;86.47;98787.50;5027396;28;45379;-76
2021/12/11 01:31:06;;;;;;;;;4.00;2.33;;;;;3.70;86.74;98795.25;5030497;28;46271;-76
2021/12/11 01:33:32;;;;;;;;;2.33;2.00;;;;;3.69;86.38;98807.44;5031052;28;45633;-76
2021/12/11 01:35:57;;;;;;;;;4.00;4.00;;;;;3.74;87.11;98812.59;5033604;28;45421;-76
2021/12/11 01:38:27;;;;;;;;;2.00;2.00;;;;;3.74;87.46;98817.78;5034918;28;45539;-76
2021/12/11 01:41:06;;;;;;;;;6.00;6.00;;;;;3.73;86.13;98818.69;5030807;28;46324;-76
2021/12/11 01:43:35;;;;;;;;;13.67;10.00;;;;;3.69;84.92;98828.28;5035080;28;45451;-76
2021/12/11 01:46:03;;;;;;;;;1.00;1.00;;;;;3.69;87.77;98833.50;5034161;28;45446;-76
2021/12/11 01:48:32;;;;;;;;;7.67;6.00;;;;;3.67;87.88;98837.91;5029298;28;45338;-76
2021/12/11 01:51:11;;;;;;;;;6.00;6.00;;;;;3.66;86.34;98843.16;5033961;28;45439;-77
2021/12/11 01:53:42;;;;;;;;;7.33;6.67;;;;;3.60;87.47;98838.03;5034369;28;45400;-77
2021/12/11 01:56:15;;;;;;;;;5.00;3.67;;;;;3.56;86.87;98833.75;5033305;28;45475;-77
2021/12/11 01:58:57;;;;;;;;;6.33;6.33;;;;;3.53;86.83;98841.59;5032665;28;45660;-76
2021/12/11 02:01:27;;;;;;;;;21.00;18.33;;;;;3.53;88.06;98852.88;5035228;28;46462;-76
2021/12/11 02:04:00;;;;;;;;;23.33;20.00;;;;;3.50;88.51;98845.16;5032952;28;45369;-77
2021/12/11 02:06:32;;;;;;;;;6.67;6.00;;;;;3.46;87.92;98852.16;5033869;28;45393;-76
2021/12/11 02:08:58;;;;;;;;;12.67;12.67;;;;;3.46;88.76;98852.16;5033844;28;45579;-77
2021/12/11 02:11:27;;;;;;;;;17.00;15.00;;;;;3.49;89.12;98867.75;5034138;28;45449;-76
2021/12/11 02:13:58;;;;;;;;;18.67;14.00;;;;;3.50;89.19;98869.47;5021817;28;45508;-76
2021/12/11 02:16:42;;;;;;;;;11.67;11.67;;;;;3.49;89.07;98869.50;5030831;28;45404;-76
2021/12/11 02:19:28;;;;;;;;;12.33;12.33;;;;;3.46;89.04;98880.81;5032050;28;45551;-77
2021/12/11 02:22:00;;;;;;;;;14.33;11.67;;;;;3.44;89.53;98881.72;5034376;28;46235;-77
2021/12/11 02:24:39;;;;;;;;;20.33;13.67;;;;;3.44;90.22;98892.13;5027579;28;45339;-76
2021/12/11 02:27:15;;;;;;;;;16.67;12.00;;;;;3.46;89.80;98890.38;5034162;28;45370;-76
2021/12/11 02:29:49;;;;;;;;;11.67;8.33;;;;;3.47;89.52;98889.50;5036645;28;45409;-76
2021/12/11 02:32:42;;;;;;;;;10.00;8.67;;;;;3.48;89.51;98899.03;5033482;28;46789;-76
2021/12/11 02:35:17;;;;;;;;;6.00;5.67;;;;;3.53;89.80;98893.72;5028346;28;45429;-76
2021/12/11 02:37:49;;;;;;;;;9.33;7.00;;;;;3.57;89.86;98906.69;5035131;28;45490;-76
2021/12/11 02:40:28;;;;;;;;;15.00;12.00;;;;;3.60;89.87;98901.44;5025501;28;45385;-76
2021/12/11 02:43:04;;;;;;;;;10.67;10.67;;;;;3.63;90.29;98904.00;5036454;28;45663;-76
2021/12/11 02:45:37;;;;;;;;;12.00;10.00;;;;;3.64;89.95;98916.16;5038283;28;45361;-76
2021/12/11 02:48:08;;;;;;;;;3.33;3.33;;;;;3.66;88.67;98917.00;5036201;28;45467;-76
2021/12/11 02:50:39;;;;;;;;;5.67;5.00;;;;;3.66;88.15;98911.78;5037742;28;45672;-76
2021/12/11 02:53:16;;;;;;;;;1.67;1.67;;;;;3.70;87.58;98909.97;5037623;28;46186;-75
2021/12/11 02:56:05;;;;;;;;;1.00;1.00;;;;;3.73;86.28;98912.53;5035451;28;45451;-76
2021/12/11 02:58:36;;;;;;;;;4.33;4.33;;;;;3.73;86.06;98910.78;5035455;28;45492;-76
2021/12/11 03:01:09;;;;;;;;;3.00;3.00;;;;;3.76;86.74;98921.16;5036555;28;45434;-76
2021/12/11 03:03:41;;;;;;;;;0.00;0.00;;;;;3.79;86.38;98923.72;5032855;28;45371;-75
2021/12/11 03:06:19;;;;;;;;;1.00;1.00;;;;;3.80;85.67;98924.59;5038262;28;45389;-76
2021/12/11 03:08:45;;;;;;;;;4.67;2.67;;;;;3.79;86.02;98920.25;5038181;28;45424;-76
2021/12/11 03:11:15;;;;;;;;;4.33;3.00;;;;;3.79;86.33;98922.88;5036634;28;45314;-76
2021/12/11 03:13:49;;;;;;;;;8.67;7.33;;;;;3.80;87.12;98941.09;5037562;28;45760;-76
2021/12/11 03:16:16;;;;;;;;;5.33;3.67;;;;;3.78;87.09;98945.47;5036555;28;45448;-76
2021/12/11 03:18:41;;;;;;;;;8.00;6.67;;;;;3.78;87.66;98955.03;5037168;28;45379;-76
2021/12/11 03:21:06;;;;;;;;;7.67;7.67;;;;;3.80;87.70;98948.06;5037731;28;45546;-75
2021/12/11 03:23:32;;;;;;;;;10.00;8.00;;;;;3.80;87.51;98946.31;5034817;28;45484;-76
2021/12/11 03:25:58;;;;;;;;;6.00;6.00;;;;;3.83;87.69;98945.41;5031878;28;45417;-75
2021/12/11 03:28:24;;;;;;;;;13.33;8.67;;;;;3.83;88.11;98943.66;5049728;28;45683;-75
2021/12/11 03:30:57;;;;;;;;;9.67;9.67;;;;;3.85;88.58;98941.03;5030662;28;45365;-76
2021/12/11 03:33:26;;;;;;;;;7.67;7.67;;;;;3.86;88.29;98938.38;5039113;28;47930;-75
2021/12/11 03:35:52;;;;;;;;;15.00;11.00;;;;;3.87;88.42;98947.06;5031936;28;45252;-75
2021/12/11 03:38:18;;;;;;;;;12.00;11.67;;;;;3.86;88.26;98955.75;5034510;28;45424;-75
2021/12/11 03:40:44;;;;;;;;;10.67;9.33;;;;;3.85;88.28;98957.50;5031533;28;45426;-75
2021/12/11 03:43:15;;;;;;;;;12.00;9.33;;;;;3.83;88.56;98954.09;5034681;28;45582;-75
2021/12/11 03:45:44;;;;;;;;;11.33;10.33;;;;;3.81;88.31;98960.22;5035844;28;45409;-75
2021/12/11 03:48:33;;;;;;;;;12.00;10.67;;;;;3.79;88.61;98957.63;5037626;28;45432;-75
2021/12/11 03:51:00;;;;;;;;;17.67;13.33;;;;;3.76;88.94;98969.84;5035108;28;45444;-75
2021/12/11 03:53:25;;;;;;;;;18.33;13.33;;;;;3.74;89.28;98962.03;5031485;28;46356;-75
2021/12/11 03:55:57;;;;;;;;;13.67;12.67;;;;;3.73;89.17;98965.53;5035295;28;45387;-75
2021/12/11 03:58:23;;;;;;;;;9.33;8.33;;;;;3.73;89.26;98970.75;5037518;28;45712;-76
2021/12/11 04:00:51;;;;;;;;;7.00;7.00;;;;;3.72;88.33;98975.97;5037084;28;46932;-75
2021/12/11 04:03:22;;;;;;;;;7.00;7.00;;;;;3.66;87.96;98965.66;5036808;28;47508;-75
2021/12/11 04:05:48;;;;;;;;;1.00;1.00;;;;;3.64;88.25;98967.44;5033302;28;45314;-75
2021/12/11 04:08:19;;;;;;;;;6.67;6.33;;;;;3.62;88.14;98963.97;5034814;28;45518;-75
2021/12/11 04:10:46;;;;;;;;;15.00;11.33;;;;;3.62;89.29;98971.78;5032152;28;45586;-75
2021/12/11 04:13:14;;;;;;;;;17.33;11.00;;;;;3.63;89.45;98970.91;5035477;28;46219;-75
2021/12/11 04:15:42;;;;;;;;;17.00;16.67;;;;;3.63;89.48;98978.72;5029427;28;45448;-75
2021/12/11 04:18:08;;;;;;;;;16.00;14.33;;;;;3.63;89.61;98981.34;5036403;28;45381;-75
2021/12/11 04:20:37;;;;;;;;;14.67;13.67;;;;;3.63;89.21;98983.94;5051788;28;45444;-75
2021/12/11 04:23:04;;;;;;;;;17.00;13.00;;;;;3.64;89.43;98996.09;5035196;28;46203;-76
2021/12/11 04:25:30;;;;;;;;;8.67;7.33;;;;;3.65;89.09;98998.69;5029803;28;45428;-75
2021/12/11 04:27:57;;;;;;;;;6.33;6.33;;;;;3.67;88.80;99002.13;5036746;28;45356;-75
2021/12/11 04:30:24;;;;;;;;;13.33;6.67;;;;;3.68;88.41;98997.78;5033385;28;45432;-75
2021/12/11 04:32:52;;;;;;;;;5.33;2.67;;;;;3.68;87.83;99001.25;5036333;28;46689;-75
2021/12/11 04:35:18;;;;;;;;;2.00;2.00;;;;;3.68;87.49;99001.25;5032990;28;45349;-75
2021/12/11 04:37:44;;;;;;;;;2.33;2.33;;;;;3.68;87.10;98996.03;5036558;28;45441;-75
2021/12/11 04:40:21;;;;;;;;;4.00;2.67;;;;;3.71;87.37;99003.78;5031993;28;45318;-75
2021/12/11 04:45:30;;;;;;;;;3.33;3.00;;;;;3.78;86.65;99021.09;5027972;28;45576;-74
2021/12/11 04:48:03;;;;;;;;;3.00;1.00;;;;;3.76;86.37;99020.25;5036221;28;45472;-74
2021/12/11 04:50:55;;;;;;;;;5.00;2.00;;;;;3.75;87.26;99028.94;5033812;28;45376;-75
2021/12/11 04:58:52;;;;;;;;;5.00;2.67;;;;;3.70;87.35;99028.13;5036182;28;45396;-75
2021/12/11 05:04:06;;;;;;;;;4.33;1.00;;;;;3.74;87.78;99042.00;5031495;28;45526;-75
2021/12/11 05:11:52;;;;;;;;;2.00;1.00;;;;;3.76;86.59;99040.22;5036164;28;45651;-74
2021/12/11 05:14:19;;;;;;;;;4.33;2.00;;;;;3.80;87.11;99044.53;5027702;28;45512;-74
2021/12/11 05:16:45;;;;;;;;;2.00;2.00;;;;;3.81;87.24;99049.72;5033719;28;45423;-74
2021/12/11 05:19:11;;;;;;;;;3.00;3.00;;;;;3.85;86.99;99042.72;5025624;28;45301;-74
2021/12/11 05:21:37;;;;;;;;;5.33;3.00;;;;;3.89;86.57;99054.81;5032980;28;45495;-74
2021/12/11 05:24:05;;;;;;;;;2.00;2.00;;;;;3.90;86.35;99058.28;5035671;28;45512;-74
2021/12/11 05:26:31;;;;;;;;;3.67;2.33;;;;;3.92;86.69;99052.16;5035609;28;45385;-75
2021/12/11 05:28:57;;;;;;;;;4.33;2.33;;;;;3.97;87.11;99065.16;5030002;28;45481;-75
2021/12/11 05:31:22;;;;;;;;;3.75;3.75;;;;;4.00;87.44;99062.50;5035526;28;45590;-74
2021/12/11 05:33:48;;;;;;;;;5.00;3.00;;;;;4.02;87.13;99065.94;5027379;28;45833;-74
2021/12/11 05:36:16;;;;;;;;;3.33;3.33;;;;;4.03;87.39;99063.28;5035109;28;45409;-74
2021/12/11 05:38:47;;;;;;;;;4.00;4.00;;;;;4.06;87.25;99065.00;5032730;28;45508;-74
2021/12/11 05:41:15;;;;;;;;;4.33;3.00;;;;;4.06;87.04;99076.28;5034620;28;45433;-74
2021/12/11 05:43:42;;;;;;;;;4.33;4.33;;;;;4.09;85.67;99076.25;5031778;28;46047;-75
2021/12/11 05:46:09;;;;;;;;;3.00;3.00;;;;;4.12;86.32;99084.03;5051242;28;45363;-74
2021/12/11 05:48:35;;;;;;;;;3.33;2.00;;;;;4.16;85.89;99082.25;5033741;28;45248;-74
2021/12/11 05:51:04;;;;;;;;;6.00;4.50;;;;;4.16;86.46;99080.50;5035910;28;45544;-75
2021/12/11 05:53:32;;;;;;;;;1.00;1.00;;;;;4.16;86.86;99090.94;5031924;28;46212;-75
2021/12/11 05:56:00;;;;;;;;;4.67;4.33;;;;;4.14;86.87;99092.72;5035291;28;45400;-74
2021/12/11 06:01:29;;;;;;;;;12.00;9.67;;;;;4.11;87.03;99095.34;5025183;28;45461;-75
2021/12/11 06:03:55;;;;;;;;;8.33;6.33;;;;;4.09;87.09;99096.25;5031984;28;48811;-74
2021/12/11 06:06:21;;;;;;;;;6.67;6.67;;;;;4.05;86.95;99103.25;5035238;28;45361;-75
2021/12/11 06:08:47;;;;;;;;;8.00;6.67;;;;;4.03;86.85;99117.19;5032018;28;45451;-74
2021/12/11 06:11:14;;;;;;;;;6.00;5.00;;;;;4.01;86.51;99103.34;5034522;28;45471;-75
2021/12/11 06:13:40;;;;;;;;;4.67;4.67;;;;;3.99;84.98;99111.19;5033992;28;46162;-74
2021/12/11 06:16:06;;;;;;;;;4.67;1.67;;;;;4.00;86.12;99115.53;5035019;28;45411;-74
2021/12/11 06:18:31;;;;;;;;;5.33;4.33;;;;;3.99;86.40;99124.22;5033972;28;45427;-74
2021/12/11 06:20:57;;;;;;;;;6.00;6.00;;;;;3.98;86.10;99126.84;5029692;28;45492;-74
2021/12/11 06:23:23;;;;;;;;;5.00;3.33;;;;;3.96;86.50;99128.63;5035025;28;45540;-74
2021/12/11 06:25:50;;;;;;;;;6.00;6.00;;;;;3.96;87.23;99133.84;5034759;28;45354;-74
2021/12/11 06:28:17;;;;;;;;;8.00;7.00;;;;;3.96;86.55;99136.44;5034689;28;45389;-75
2021/12/11 06:30:44;;;;;;;;;6.00;2.00;;;;;3.96;86.84;99144.28;5033649;28;45662;-75
2021/12/11 06:33:11;;;;;;;;;7.67;6.00;;;;;3.96;86.97;99144.28;5031789;28;45478;-74
2021/12/11 06:35:45;;;;;;;;;5.67;5.67;;;;;3.96;87.28;99142.53;5027339;28;45517;-74
2021/12/11 06:38:15;;;;;;;;;6.00;4.00;;;;;3.94;86.93;99136.47;5034896;28;45435;-74
2021/12/11 06:40:41;;;;;;;;;6.00;6.00;;;;;3.94;86.78;99152.13;5034531;28;45477;-74
2021/12/11 06:43:07;;;;;;;;;6.00;5.00;;;;;3.96;87.31;99155.56;5034393;28;46428;-74
2021/12/11 06:45:33;;;;;;;;;4.33;4.33;;;;;3.97;87.11;99152.06;5028497;28;45468;-74
2021/12/11 06:47:59;;;;;;;;;4.33;3.00;;;;;3.98;87.09;99152.94;5033780;28;45259;-74
2021/12/11 06:50:25;;;;;;;;;3.67;3.67;;;;;3.99;87.03;99158.13;5030811;28;45465;-74
2021/12/11 06:52:52;;;;;;;;;6.00;6.00;;;;;4.02;87.41;99165.06;5034342;28;45408;-74
2021/12/11 06:55:19;;;;;;;;;10.00;8.00;;;;;4.02;86.82;99160.69;5033923;28;45324;-73
2021/12/11 06:57:45;;;;;;;;;10.67;6.00;;;;;3.98;86.57;99172.06;5034454;28;45373;-73
2021/12/11 07:00:14;;;;;;;;;4.67;3.33;;;;;3.94;86.86;99178.19;5031478;28;45899;-73
2021/12/11 07:02:40;;;;;;;;;7.67;6.67;;;;;3.96;84.14;99168.59;5034189;28;45536;-73
2021/12/11 07:05:06;;;;;;;;;6.67;6.67;;;;;3.98;85.79;99173.81;5033359;28;45412;-73
2021/12/11 07:07:34;;;;;;;;;7.00;7.00;;;;;3.96;86.23;99192.06;5033096;28;45446;-73
2021/12/11 07:10:04;;;;;;;;;13.33;13.33;;;;;3.96;86.19;99193.81;5032213;28;45522;-73
2021/12/11 07:12:29;;;;;;;;;7.00;6.00;;;;;3.96;86.37;99205.13;5033879;28;46464;-73
2021/12/11 07:14:55;;;;;;;;;11.00;8.67;;;;;3.99;86.00;99204.22;5033871;28;45420;-73
2021/12/11 07:17:21;;;;;;;;;2.33;2.33;;;;;4.01;85.60;99211.16;5033226;28;45439;-73
2021/12/11 07:19:47;;;;;;;;;7.33;6.67;;;;;4.04;85.91;99216.31;5021643;28;45544;-73
2021/12/11 07:22:13;;;;;;;;;7.33;6.00;;;;;4.05;86.23;99214.56;5033752;28;45451;-74
2021/12/11 07:24:44;;;;;;;;;5.33;4.33;;;;;4.05;86.15;99215.44;5033436;28;45472;-74
2021/12/11 07:27:11;;;;;;;;;5.33;5.33;;;;;4.07;86.38;99229.31;5037290;28;45406;-74
2021/12/11 07:29:37;;;;;;;;;6.00;5.33;;;;;4.07;85.54;99218.88;5033857;28;45559;-74
2021/12/11 07:32:04;;;;;;;;;5.33;4.67;;;;;4.11;85.90;99230.16;5035771;28;46027;-74
2021/12/11 07:34:30;;;;;;;;;7.00;4.67;;;;;4.09;85.99;99242.34;5031365;28;45424;-74
2021/12/11 07:36:57;;;;;;;;;12.00;8.33;;;;;4.08;86.29;99240.63;5036851;28;45480;-74
2021/12/11 07:39:25;;;;;;;;;7.67;7.00;;;;;4.10;86.69;99246.69;5028676;28;45600;-75
2021/12/11 07:41:53;;;;;;;;;8.00;8.00;;;;;4.11;86.12;99245.81;5036828;28;45670;-74
2021/12/11 07:44:20;;;;;;;;;11.67;10.33;;;;;4.14;86.42;99233.59;5035987;28;45589;-74
2021/12/11 07:46:46;;;;;;;;;6.00;6.00;;;;;4.17;85.17;99240.53;5036883;28;45440;-74
2021/12/11 07:49:12;;;;;;;;;7.00;6.00;;;;;4.17;82.56;99243.13;5032947;28;45375;-74
2021/12/11 07:51:39;;;;;;;;;9.00;8.00;;;;;4.21;84.42;99250.00;5036087;28;45421;-74
2021/12/11 07:54:05;;;;;;;;;13.00;11.67;;;;;4.25;85.32;99254.31;5031449;28;45567;-74
2021/12/11 07:56:31;;;;;;;;;6.00;6.00;;;;;4.22;84.16;99244.78;5036396;28;45429;-73
2021/12/11 07:58:59;;;;;;;;;10.00;7.33;;;;;4.23;84.65;99245.63;5035704;28;45489;-74
2021/12/11 08:01:26;;;;;;;;;7.67;6.00;;;;;4.25;84.92;99241.25;5036264;28;45517;-74
2021/12/11 08:03:52;;;;;;;;;6.67;6.67;;;;;4.28;84.82;99256.91;5033834;28;45388;-74
2021/12/11 08:06:17;;;;;;;;;6.00;6.00;;;;;4.31;84.74;99269.91;5036050;28;45353;-73
2021/12/11 08:08:44;;;;;;;;;11.00;7.00;;;;;4.32;85.09;99263.81;5035864;28;45507;-74
2021/12/11 08:11:17;;;;;;;;;12.67;12.67;;;;;4.36;84.93;99275.03;5036775;28;45555;-75
2021/12/11 08:13:45;;;;;;;;;13.00;12.00;;;;;4.41;85.51;99273.25;5035768;28;45372;-73
2021/12/11 08:16:13;;;;;;;;;11.33;8.67;;;;;4.46;85.27;99276.66;5032634;28;45457;-75
2021/12/11 08:18:39;;;;;;;;;12.00;12.00;;;;;4.49;85.18;99277.50;5049492;28;45188;-75
2021/12/11 08:21:05;;;;;;;;;7.67;7.67;;;;;4.54;84.92;99288.72;5034768;28;45444;-75
2021/12/11 08:23:31;;;;;;;;;11.67;8.33;;;;;4.59;84.87;99286.06;5036142;28;45381;-74
2021/12/11 08:25:59;;;;;;;;;6.33;4.33;;;;;4.66;82.02;99297.28;5036450;28;45542;-74
2021/12/11 08:28:30;;;;;;;;;7.00;4.33;;;;;4.67;84.05;99299.03;5035806;28;45453;-74
2021/12/11 08:30:58;;;;;;;;;9.67;8.67;;;;;4.65;83.06;99295.56;5034924;28;45401;-75
2021/12/11 08:33:24;;;;;;;;;6.00;3.67;;;;;4.61;81.46;99305.19;5035257;28;45597;-74
2021/12/11 08:35:52;;;;;;;;;1.00;1.00;;;;;4.58;82.31;99294.78;5035784;28;45513;-75
2021/12/11 08:38:18;;;;;;;;;7.00;3.00;;;;;4.57;82.38;99306.97;5035021;28;45413;-75
2021/12/11 08:40:48;;;;;;;;;10.67;10.33;;;;;4.56;82.26;99314.81;5034376;28;46430;-74
2021/12/11 08:43:15;;;;;;;;;8.67;8.67;;;;;4.53;82.83;99318.31;5035419;28;45358;-75
2021/12/11 08:45:48;;;;;;;;;9.67;9.67;;;;;4.51;83.70;99321.88;5025932;28;45487;-75
2021/12/11 08:48:21;;;;;;;;;19.00;16.33;;;;;4.52;84.46;99324.44;5034827;28;45469;-75
2021/12/11 08:50:51;;;;;;;;;16.33;12.67;;;;;4.60;84.97;99333.91;5035573;28;46478;-74
2021/12/11 08:53:18;;;;;;;;;12.67;10.00;;;;;4.69;83.19;99334.66;5034566;28;45409;-75
2021/12/11 08:55:49;;;;;;;;;18.33;13.00;;;;;4.77;83.92;99345.00;5033088;28;45183;-74
2021/12/11 08:58:17;;;;;;;;;12.67;12.00;;;;;4.83;83.92;99350.16;5032272;28;45622;-74
2021/12/11 09:01:02;;;;;;;;;9.00;7.00;;;;;4.91;83.77;99356.13;5031777;28;45535;-62
2021/12/11 09:03:30;;;;;;;;;12.00;11.33;;;;;5.03;82.47;99355.09;5032817;28;45814;-69
2021/12/11 09:06:04;;;;;;;;;11.67;11.67;;;;;5.11;82.87;99369.78;5035297;28;45341;-68
2021/12/11 09:08:37;;;;;;;;;11.00;10.67;;;;;5.18;82.51;99381.03;5031722;28;45353;-64
2021/12/11 09:11:11;;;;;;;;;12.33;8.67;;;;;5.21;82.84;99368.75;5026756;28;45541;-69
2021/12/11 09:14:00;;;;;;;;;14.00;14.00;;;;;5.31;83.17;99374.72;5032851;28;45443;-66
2021/12/11 09:16:28;;;;;;;;;10.67;9.67;;;;;5.42;82.72;99380.66;5029937;28;45403;-70
2021/12/11 09:19:26;;;;;;;;;11.67;11.67;;;;;5.51;82.81;99380.53;5027451;28;45631;-68
2021/12/11 09:22:08;;;;;;;;;12.67;9.67;;;;;5.60;82.25;99382.13;5034153;28;45438;-68
2021/12/11 09:24:49;;;;;;;;;13.33;12.00;;;;;5.65;82.22;99390.78;5032521;28;45362;-68
2021/12/11 09:27:21;;;;;;;;;7.33;6.67;;;;;5.68;77.89;99392.47;5034661;28;45356;-68
2021/12/11 09:29:54;;;;;;;;;9.00;9.00;;;;;5.61;80.86;99383.84;5027884;28;45583;-69
2021/12/11 09:32:29;;;;;;;;;11.00;10.33;;;;;5.58;81.08;99397.84;5034702;28;45431;-68
2021/12/11 09:35:26;;;;;;;;;8.67;7.00;;;;;5.56;78.99;99396.13;5028566;28;45558;-68
2021/12/11 09:37:57;;;;;;;;;6.50;6.50;;;;;5.52;79.51;99416.25;5032519;28;45439;-68
2021/12/11 09:40:31;;;;;;;;;10.67;10.33;;;;;5.51;80.34;99411.03;5025570;28;45458;-68
2021/12/11 09:42:57;;;;;;;;;5.67;5.67;;;;;5.50;75.56;99425.88;5032757;28;45723;-69
2021/12/11 09:45:26;;;;;;;;;12.67;10.00;;;;;5.48;78.53;99414.56;5030422;28;45347;-68
2021/12/11 09:48:08;;;;;;;;;5.00;4.33;;;;;5.41;79.42;99418.13;5033631;28;45507;-68
2021/12/11 09:50:46;;;;;;;;;9.00;8.00;;;;;5.40;78.28;99421.63;5036011;28;45469;-68
2021/12/11 09:53:14;;;;;;;;;9.67;8.00;;;;;5.39;78.59;99438.22;5047161;28;45534;-68
2021/12/11 09:55:40;;;;;;;;;12.67;9.67;;;;;5.34;77.68;99437.44;5024598;28;45368;-68
2021/12/11 09:58:13;;;;;;;;;10.67;10.67;;;;;5.34;79.84;99436.56;5023475;28;45393;-68
2021/12/11 10:00:47;;;;;;;;;2.25;2.25;;;;;5.37;78.09;99447.81;5032863;28;45421;-68
2021/12/11 10:03:17;;;;;;;;;7.67;6.67;;;;;5.39;79.14;99450.41;5032426;28;45447;-68
2021/12/11 10:05:55;;;;;;;;;6.00;6.00;;;;;5.40;76.67;99432.09;5033810;28;45429;-68
2021/12/11 10:08:37;;;;;;;;;9.00;8.00;;;;;5.38;76.52;99444.31;5033661;28;45400;-68
2021/12/11 10:11:11;;;;;;;;;4.00;4.00;;;;;5.37;76.59;99449.56;5031332;28;45367;-68
2021/12/11 10:14:08;;;;;;;;;10.00;8.00;;;;;5.36;76.62;99433.06;5032694;28;45520;-67
2021/12/11 10:16:38;;;;;;;;;7.00;4.25;;;;;5.37;77.16;99444.34;5030680;28;45669;-67
2021/12/11 10:19:05;;;;;;;;;9.67;9.67;;;;;5.36;75.29;99438.28;5027648;28;45381;-67
2021/12/11 10:21:36;;;;;;;;;2.25;2.00;;;;;5.38;77.92;99446.94;5033873;28;45469;-67
2021/12/11 10:24:15;;;;;;;;;7.00;6.00;;;;;5.35;76.40;99439.16;5027361;28;46453;-67
2021/12/11 10:26:41;;;;;;;;;1.00;1.00;;;;;5.36;75.99;99451.34;5032393;28;45450;-66
2021/12/11 10:29:11;;;;;;;;;7.67;4.00;;;;;5.34;76.63;99455.72;5027254;28;45423;-67
2021/12/11 10:31:41;;;;;;;;;6.75;4.50;;;;;5.32;78.21;99464.47;5026142;28;45731;-68
2021/12/11 10:34:11;;;;;;;;;6.75;6.00;;;;;5.28;76.52;99457.56;5027293;28;46488;-67
2021/12/11 10:36:43;;;;;;;;;4.33;3.67;;;;;5.23;78.23;99460.22;5032361;28;45398;-67
2021/12/11 10:39:12;;;;;;;;;7.00;7.00;;;;;5.19;77.63;99462.03;5027495;28;45518;-67
2021/12/11 10:41:38;;;;;;;;;7.00;7.00;;;;;5.16;77.81;99474.28;5033127;28;45417;-65
2021/12/11 10:44:09;;;;;;;;;8.33;6.00;;;;;5.15;78.22;99462.09;5028432;28;46001;-65
2021/12/11 10:46:44;;;;;;;;;8.67;7.00;;;;;5.13;79.33;99472.56;5033523;28;45517;-67
2021/12/11 10:49:11;;;;;;;;;3.00;3.00;;;;;5.11;79.31;99461.25;5027620;28;45592;-67
2021/12/11 10:51:50;;;;;;;;;12.00;7.00;;;;;5.10;78.85;99467.34;5031761;28;45395;-65
2021/12/11 10:54:17;;;;;;;;;7.00;7.00;;;;;5.09;79.65;99478.69;5029161;28;46659;-67
2021/12/11 10:56:44;;;;;;;;;7.00;6.67;;;;;5.06;79.64;99462.19;5032582;28;45368;-65
2021/12/11 10:59:19;;;;;;;;;8.00;8.00;;;;;5.04;79.51;99467.41;5029236;28;45661;-65
2021/12/11 11:01:56;;;;;;;;;8.00;8.00;;;;;5.06;79.77;99465.66;5030665;28;45488;-66
2021/12/11 11:04:27;;;;;;;;;12.67;9.00;;;;;5.07;79.70;99475.22;5030408;28;47479;-65
2021/12/11 11:06:53;;;;;;;;;8.00;6.67;;;;;5.12;80.26;99475.19;5034010;28;45404;-65
2021/12/11 11:09:22;;;;;;;;;9.00;8.00;;;;;5.12;80.33;99473.44;5032980;28;45444;-64
2021/12/11 11:11:50;;;;;;;;;8.00;7.00;;;;;5.11;79.40;99473.44;5034018;28;45349;-64
2021/12/11 11:14:17;;;;;;;;;10.00;7.33;;;;;5.08;80.20;99478.72;5030294;28;46299;-64
2021/12/11 11:16:51;;;;;;;;;13.33;12.00;;;;;5.04;80.36;99469.16;5036331;28;45445;-65
2021/12/11 11:19:20;;;;;;;;;8.67;6.67;;;;;5.06;80.03;99472.63;5030067;28;45481;-65
2021/12/11 11:21:49;;;;;;;;;9.67;9.00;;;;;5.11;79.83;99474.31;5036355;28;45415;-65
2021/12/11 11:24:15;;;;;;;;;18.33;16.00;;;;;5.16;81.56;99476.88;5026580;28;46198;-65
2021/12/11 11:26:43;;;;;;;;;8.00;6.67;;;;;5.24;78.87;99494.19;5035570;28;45414;-65
2021/12/11 11:29:17;;;;;;;;;8.33;7.00;;;;;5.25;79.50;99485.47;5030623;28;45465;-65
2021/12/11 11:31:45;;;;;;;;;14.33;14.33;;;;;5.29;79.82;99488.03;5036718;28;45478;-65
2021/12/11 11:34:13;;;;;;;;;8.00;7.00;;;;;5.31;79.91;99496.72;5029907;28;45432;-65
2021/12/11 11:36:39;;;;;;;;;6.00;4.00;;;;;5.30;79.03;99490.63;5036400;28;45487;-65
2021/12/11 11:39:09;;;;;;;;;6.33;5.67;;;;;5.28;79.86;99489.78;5029672;28;45473;-65
2021/12/11 11:41:42;;;;;;;;;3.67;3.67;;;;;5.26;79.53;99495.03;5036595;28;45515;-65
2021/12/11 11:44:10;;;;;;;;;7.33;7.33;;;;;5.22;77.46;99495.94;5030108;28;47209;-65
2021/12/11 11:46:37;;;;;;;;;5.25;3.75;;;;;5.17;78.57;99541.34;5036407;28;45341;-65
2021/12/11 11:49:05;;;;;;;;;6.67;3.33;;;;;5.16;78.34;99503.00;5031893;28;45480;-65
2021/12/11 11:52:00;;;;;;;;;6.33;6.33;;;;;5.11;78.14;99503.06;5034235;28;45480;-65
2021/12/11 11:54:28;;;;;;;;;3.50;2.75;;;;;5.12;76.13;99491.72;5031121;28;46358;-65
2021/12/11 11:57:19;;;;;;;;;4.00;4.00;;;;;5.15;78.47;99496.91;5036465;28;45460;-65
2021/12/11 11:59:45;;;;;;;;;2.00;2.00;;;;;5.12;77.78;99486.50;5026432;28;45333;-64
2021/12/11 12:02:17;;;;;;;;;4.00;4.00;;;;;5.11;78.97;99486.50;5033984;28;45413;-65
2021/12/11 12:04:44;;;;;;;;;9.33;8.33;;;;;5.09;79.24;99515.28;5027099;28;46128;-65
2021/12/11 12:07:10;;;;;;;;;8.33;7.00;;;;;5.09;78.26;99509.19;5034507;28;45429;-66
2021/12/11 12:09:43;;;;;;;;;4.00;4.00;;;;;5.09;78.42;99490.91;5027905;28;45548;-65
2021/12/11 12:12:10;;;;;;;;;4.50;4.50;;;;;5.07;77.39;99501.34;5050860;28;45538;-65
2021/12/11 12:14:38;;;;;;;;;7.50;5.00;;;;;5.10;78.47;99496.09;5029345;28;46023;-65
2021/12/11 12:17:07;;;;;;;;;6.33;6.00;;;;;5.12;78.61;99494.34;5035734;28;45500;-65